sensor_id;sensor_type;location;lat;lon;timestamp;P1;durP1;ratioP1;P2;durP2;ratioP2
6093;SDS011;19964;42.060;24.700;2023-09-19T00:01:39;7.47;;;6.77;;
6093;SDS011;19964;42.060;24.700;2023-09-19T00:04:08;8.20;;;7.43;;
6093;SDS011;19964;42.060;24.700;2023-09-19T00:06:37;8.10;;;7.47;;
6093;SDS011;19964;42.060;24.700;2023-09-19T00:09:04;7.70;;;7.03;;
6093;SDS011;19964;42.060;24.700;2023-09-19T00:11:35;8.40;;;7.43;;
6093;SDS011;19964;42.060;24.700;2023-09-19T00:14:02;7.83;;;7.13;;
6093;SDS011;19964;42.060;24.700;2023-09-19T00:16:30;8.20;;;6.73;;
6093;SDS011;19964;42.060;24.700;2023-09-19T00:18:57;7.23;;;6.63;;
6093;SDS011;19964;42.060;24.700;2023-09-19T00:21:26;7.97;;;7.27;;
6093;SDS011;19964;42.060;24.700;2023-09-19T00:23:53;7.83;;;7.03;;
6093;SDS011;19964;42.060;24.700;2023-09-19T00:26:20;8.27;;;7.60;;
6093;SDS011;19964;42.060;24.700;2023-09-19T00:28:47;7.97;;;7.23;;
6093;SDS011;19964;42.060;24.700;2023-09-19T00:31:14;7.63;;;6.93;;
6093;SDS011;19964;42.060;24.700;2023-09-19T00:33:40;8.37;;;7.60;;
6093;SDS011;19964;42.060;24.700;2023-09-19T00:36:07;8.00;;;7.20;;
6093;SDS011;19964;42.060;24.700;2023-09-19T00:38:36;8.33;;;7.50;;
6093;SDS011;19964;42.060;24.700;2023-09-19T00:41:03;8.17;;;7.47;;
6093;SDS011;19964;42.060;24.700;2023-09-19T00:43:30;8.07;;;7.47;;
6093;SDS011;19964;42.060;24.700;2023-09-19T00:45:59;10.27;;;7.23;;
6093;SDS011;19964;42.060;24.700;2023-09-19T00:48:28;7.97;;;7.33;;
6093;SDS011;19964;42.060;24.700;2023-09-19T00:50:55;8.17;;;7.57;;
6093;SDS011;19964;42.060;24.700;2023-09-19T00:53:24;7.80;;;7.20;;
6093;SDS011;19964;42.060;24.700;2023-09-19T00:55:53;8.03;;;7.23;;
6093;SDS011;19964;42.060;24.700;2023-09-19T00:58:21;8.20;;;7.47;;
6093;SDS011;19964;42.060;24.700;2023-09-19T01:00:48;8.37;;;7.50;;
6093;SDS011;19964;42.060;24.700;2023-09-19T01:03:16;7.70;;;7.00;;
6093;SDS011;19964;42.060;24.700;2023-09-19T01:05:43;7.97;;;7.20;;
6093;SDS011;19964;42.060;24.700;2023-09-19T01:08:10;8.20;;;7.43;;
6093;SDS011;19964;42.060;24.700;2023-09-19T01:10:38;7.90;;;7.20;;
6093;SDS011;19964;42.060;24.700;2023-09-19T01:13:15;8.23;;;7.40;;
6093;SDS011;19964;42.060;24.700;2023-09-19T01:15:55;7.90;;;7.30;;
6093;SDS011;19964;42.060;24.700;2023-09-19T01:18:33;8.57;;;7.77;;
6093;SDS011;19964;42.060;24.700;2023-09-19T01:21:08;9.17;;;7.70;;
6093;SDS011;19964;42.060;24.700;2023-09-19T01:23:59;8.87;;;6.93;;
6093;SDS011;19964;42.060;24.700;2023-09-19T01:26:53;7.80;;;7.00;;
6093;SDS011;19964;42.060;24.700;2023-09-19T01:29:36;8.40;;;7.80;;
6093;SDS011;19964;42.060;24.700;2023-09-19T01:32:08;9.03;;;8.10;;
6093;SDS011;19964;42.060;24.700;2023-09-19T01:34:45;8.00;;;7.30;;
6093;SDS011;19964;42.060;24.700;2023-09-19T01:37:13;8.40;;;7.60;;
6093;SDS011;19964;42.060;24.700;2023-09-19T01:39:46;8.50;;;7.80;;
6093;SDS011;19964;42.060;24.700;2023-09-19T01:42:18;8.63;;;7.20;;
6093;SDS011;19964;42.060;24.700;2023-09-19T01:44:53;8.47;;;7.20;;
6093;SDS011;19964;42.060;24.700;2023-09-19T01:47:26;8.37;;;7.30;;
6093;SDS011;19964;42.060;24.700;2023-09-19T01:50:02;8.97;;;8.10;;
6093;SDS011;19964;42.060;24.700;2023-09-19T01:52:40;8.90;;;8.07;;
6093;SDS011;19964;42.060;24.700;2023-09-19T01:55:13;10.07;;;7.40;;
6093;SDS011;19964;42.060;24.700;2023-09-19T01:57:45;8.00;;;7.20;;
6093;SDS011;19964;42.060;24.700;2023-09-19T02:00:18;8.70;;;7.67;;
6093;SDS011;19964;42.060;24.700;2023-09-19T02:02:50;9.27;;;8.33;;
6093;SDS011;19964;42.060;24.700;2023-09-19T02:05:22;8.47;;;7.60;;
6093;SDS011;19964;42.060;24.700;2023-09-19T02:07:50;8.70;;;7.80;;
6093;SDS011;19964;42.060;24.700;2023-09-19T02:10:20;9.87;;;7.77;;
6093;SDS011;19964;42.060;24.700;2023-09-19T02:12:48;8.37;;;7.57;;
6093;SDS011;19964;42.060;24.700;2023-09-19T02:15:16;7.87;;;7.13;;
6093;SDS011;19964;42.060;24.700;2023-09-19T02:17:43;8.43;;;7.63;;
6093;SDS011;19964;42.060;24.700;2023-09-19T02:20:12;9.27;;;8.03;;
6093;SDS011;19964;42.060;24.700;2023-09-19T02:22:40;8.53;;;6.53;;
6093;SDS011;19964;42.060;24.700;2023-09-19T02:25:08;11.90;;;7.77;;
6093;SDS011;19964;42.060;24.700;2023-09-19T02:27:35;9.10;;;7.97;;
6093;SDS011;19964;42.060;24.700;2023-09-19T02:30:02;14.50;;;8.33;;
6093;SDS011;19964;42.060;24.700;2023-09-19T02:32:31;8.73;;;7.97;;
6093;SDS011;19964;42.060;24.700;2023-09-19T02:35:01;8.90;;;8.00;;
6093;SDS011;19964;42.060;24.700;2023-09-19T02:37:31;9.03;;;8.13;;
6093;SDS011;19964;42.060;24.700;2023-09-19T02:40:00;9.87;;;8.07;;
6093;SDS011;19964;42.060;24.700;2023-09-19T02:42:27;8.67;;;7.97;;
6093;SDS011;19964;42.060;24.700;2023-09-19T02:44:55;8.77;;;7.93;;
6093;SDS011;19964;42.060;24.700;2023-09-19T02:47:22;8.93;;;7.77;;
6093;SDS011;19964;42.060;24.700;2023-09-19T02:49:49;7.97;;;7.33;;
6093;SDS011;19964;42.060;24.700;2023-09-19T02:52:16;8.80;;;8.00;;
6093;SDS011;19964;42.060;24.700;2023-09-19T02:54:45;8.47;;;7.70;;
6093;SDS011;19964;42.060;24.700;2023-09-19T02:57:13;8.50;;;7.70;;
6093;SDS011;19964;42.060;24.700;2023-09-19T02:59:42;10.37;;;7.70;;
6093;SDS011;19964;42.060;24.700;2023-09-19T03:02:09;8.50;;;7.70;;
6093;SDS011;19964;42.060;24.700;2023-09-19T03:04:36;9.17;;;8.37;;
6093;SDS011;19964;42.060;24.700;2023-09-19T03:07:03;8.57;;;7.73;;
6093;SDS011;19964;42.060;24.700;2023-09-19T03:09:31;8.77;;;8.07;;
6093;SDS011;19964;42.060;24.700;2023-09-19T03:11:59;8.83;;;8.03;;
6093;SDS011;19964;42.060;24.700;2023-09-19T03:14:26;9.27;;;7.93;;
6093;SDS011;19964;42.060;24.700;2023-09-19T03:16:55;8.67;;;7.87;;
6093;SDS011;19964;42.060;24.700;2023-09-19T03:19:22;8.70;;;7.90;;
6093;SDS011;19964;42.060;24.700;2023-09-19T03:21:49;10.03;;;8.40;;
6093;SDS011;19964;42.060;24.700;2023-09-19T03:24:15;9.23;;;8.33;;
6093;SDS011;19964;42.060;24.700;2023-09-19T03:26:42;11.60;;;7.93;;
6093;SDS011;19964;42.060;24.700;2023-09-19T03:29:11;8.60;;;7.80;;
6093;SDS011;19964;42.060;24.700;2023-09-19T03:31:39;9.23;;;8.33;;
6093;SDS011;19964;42.060;24.700;2023-09-19T03:34:06;8.97;;;8.07;;
6093;SDS011;19964;42.060;24.700;2023-09-19T03:36:34;9.03;;;8.23;;
6093;SDS011;19964;42.060;24.700;2023-09-19T03:39:01;8.43;;;7.73;;
6093;SDS011;19964;42.060;24.700;2023-09-19T03:41:30;8.60;;;7.70;;
6093;SDS011;19964;42.060;24.700;2023-09-19T03:43:58;11.70;;;8.20;;
6093;SDS011;19964;42.060;24.700;2023-09-19T03:46:26;9.17;;;8.33;;
6093;SDS011;19964;42.060;24.700;2023-09-19T03:48:53;9.27;;;8.20;;
6093;SDS011;19964;42.060;24.700;2023-09-19T03:51:20;8.83;;;7.93;;
6093;SDS011;19964;42.060;24.700;2023-09-19T03:53:47;9.07;;;8.13;;
6093;SDS011;19964;42.060;24.700;2023-09-19T03:56:14;8.50;;;7.70;;
6093;SDS011;19964;42.060;24.700;2023-09-19T03:58:41;9.13;;;8.17;;
6093;SDS011;19964;42.060;24.700;2023-09-19T04:01:08;8.60;;;7.70;;
6093;SDS011;19964;42.060;24.700;2023-09-19T04:03:36;7.60;;;7.00;;
6093;SDS011;19964;42.060;24.700;2023-09-19T04:06:12;8.77;;;7.87;;
6093;SDS011;19964;42.060;24.700;2023-09-19T04:08:39;9.00;;;8.10;;
6093;SDS011;19964;42.060;24.700;2023-09-19T04:11:06;7.80;;;7.20;;
6093;SDS011;19964;42.060;24.700;2023-09-19T04:13:33;8.63;;;7.80;;
6093;SDS011;19964;42.060;24.700;2023-09-19T04:16:00;7.83;;;7.13;;
6093;SDS011;19964;42.060;24.700;2023-09-19T04:18:29;8.07;;;7.37;;
6093;SDS011;19964;42.060;24.700;2023-09-19T04:20:59;8.97;;;8.17;;
6093;SDS011;19964;42.060;24.700;2023-09-19T04:23:27;8.27;;;7.57;;
6093;SDS011;19964;42.060;24.700;2023-09-19T04:25:54;10.50;;;7.73;;
6093;SDS011;19964;42.060;24.700;2023-09-19T04:28:22;8.73;;;7.87;;
6093;SDS011;19964;42.060;24.700;2023-09-19T04:30:50;8.00;;;7.33;;
6093;SDS011;19964;42.060;24.700;2023-09-19T04:33:16;8.97;;;7.47;;
6093;SDS011;19964;42.060;24.700;2023-09-19T04:35:43;7.93;;;7.13;;
6093;SDS011;19964;42.060;24.700;2023-09-19T04:38:12;9.63;;;7.30;;
6093;SDS011;19964;42.060;24.700;2023-09-19T04:40:40;8.07;;;7.37;;
6093;SDS011;19964;42.060;24.700;2023-09-19T04:43:06;8.20;;;7.33;;
6093;SDS011;19964;42.060;24.700;2023-09-19T04:45:33;7.77;;;7.07;;
6093;SDS011;19964;42.060;24.700;2023-09-19T04:48:00;7.90;;;7.10;;
6093;SDS011;19964;42.060;24.700;2023-09-19T04:50:27;7.33;;;6.63;;
6093;SDS011;19964;42.060;24.700;2023-09-19T04:52:54;7.23;;;6.63;;
6093;SDS011;19964;42.060;24.700;2023-09-19T04:55:23;7.10;;;6.30;;
6093;SDS011;19964;42.060;24.700;2023-09-19T04:57:50;8.70;;;6.20;;
6093;SDS011;19964;42.060;24.700;2023-09-19T05:00:18;6.57;;;6.07;;
6093;SDS011;19964;42.060;24.700;2023-09-19T05:02:50;6.60;;;6.00;;
6093;SDS011;19964;42.060;24.700;2023-09-19T05:05:17;7.93;;;6.20;;
6093;SDS011;19964;42.060;24.700;2023-09-19T05:07:45;6.17;;;5.67;;
6093;SDS011;19964;42.060;24.700;2023-09-19T05:10:12;9.00;;;5.97;;
6093;SDS011;19964;42.060;24.700;2023-09-19T05:12:41;6.57;;;5.87;;
6093;SDS011;19964;42.060;24.700;2023-09-19T05:15:10;6.93;;;6.43;;
6093;SDS011;19964;42.060;24.700;2023-09-19T05:17:37;5.97;;;5.47;;
6093;SDS011;19964;42.060;24.700;2023-09-19T05:20:04;6.53;;;6.00;;
6093;SDS011;19964;42.060;24.700;2023-09-19T05:22:41;6.67;;;6.07;;
6093;SDS011;19964;42.060;24.700;2023-09-19T05:25:11;6.30;;;5.70;;
6093;SDS011;19964;42.060;24.700;2023-09-19T05:27:43;6.20;;;5.70;;
6093;SDS011;19964;42.060;24.700;2023-09-19T05:30:10;6.07;;;5.50;;
6093;SDS011;19964;42.060;24.700;2023-09-19T05:32:40;6.57;;;5.57;;
6093;SDS011;19964;42.060;24.700;2023-09-19T05:35:06;6.13;;;5.33;;
6093;SDS011;19964;42.060;24.700;2023-09-19T05:37:34;6.77;;;5.70;;
6093;SDS011;19964;42.060;24.700;2023-09-19T05:40:03;6.50;;;5.67;;
6093;SDS011;19964;42.060;24.700;2023-09-19T05:42:35;9.40;;;6.00;;
6093;SDS011;19964;42.060;24.700;2023-09-19T05:45:05;5.55;;;5.13;;
6093;SDS011;19964;42.060;24.700;2023-09-19T05:47:32;6.35;;;5.63;;
6093;SDS011;19964;42.060;24.700;2023-09-19T05:49:59;7.63;;;5.70;;
6093;SDS011;19964;42.060;24.700;2023-09-19T05:52:26;5.85;;;5.32;;
6093;SDS011;19964;42.060;24.700;2023-09-19T05:54:53;7.43;;;5.47;;
6093;SDS011;19964;42.060;24.700;2023-09-19T05:57:21;6.00;;;5.43;;
6093;SDS011;19964;42.060;24.700;2023-09-19T05:59:49;7.38;;;5.32;;
6093;SDS011;19964;42.060;24.700;2023-09-19T06:02:18;5.30;;;4.90;;
6093;SDS011;19964;42.060;24.700;2023-09-19T06:04:45;6.18;;;5.55;;
6093;SDS011;19964;42.060;24.700;2023-09-19T06:07:13;6.07;;;5.57;;
6093;SDS011;19964;42.060;24.700;2023-09-19T06:09:41;5.82;;;5.30;;
6093;SDS011;19964;42.060;24.700;2023-09-19T06:12:08;6.60;;;5.35;;
6093;SDS011;19964;42.060;24.700;2023-09-19T06:14:39;7.28;;;5.53;;
6093;SDS011;19964;42.060;24.700;2023-09-19T06:17:06;11.35;;;5.72;;
6093;SDS011;19964;42.060;24.700;2023-09-19T06:19:34;9.95;;;5.97;;
6093;SDS011;19964;42.060;24.700;2023-09-19T06:22:01;7.63;;;5.85;;
6093;SDS011;19964;42.060;24.700;2023-09-19T06:24:28;10.63;;;6.20;;
6093;SDS011;19964;42.060;24.700;2023-09-19T06:26:55;6.82;;;5.57;;
6093;SDS011;19964;42.060;24.700;2023-09-19T06:29:22;9.77;;;5.80;;
6093;SDS011;19964;42.060;24.700;2023-09-19T06:31:50;6.90;;;6.30;;
6093;SDS011;19964;42.060;24.700;2023-09-19T06:34:16;9.52;;;6.38;;
6093;SDS011;19964;42.060;24.700;2023-09-19T06:36:45;11.43;;;6.10;;
6093;SDS011;19964;42.060;24.700;2023-09-19T06:39:11;6.83;;;6.27;;
6093;SDS011;19964;42.060;24.700;2023-09-19T06:41:38;6.33;;;5.83;;
6093;SDS011;19964;42.060;24.700;2023-09-19T06:44:06;6.90;;;5.93;;
6093;SDS011;19964;42.060;24.700;2023-09-19T06:46:34;10.27;;;6.20;;
6093;SDS011;19964;42.060;24.700;2023-09-19T06:49:04;8.57;;;5.70;;
6093;SDS011;19964;42.060;24.700;2023-09-19T06:51:31;8.63;;;6.27;;
6093;SDS011;19964;42.060;24.700;2023-09-19T06:54:01;6.72;;;6.07;;
6093;SDS011;19964;42.060;24.700;2023-09-19T06:56:30;6.82;;;6.10;;
6093;SDS011;19964;42.060;24.700;2023-09-19T06:58:58;7.40;;;5.85;;
6093;SDS011;19964;42.060;24.700;2023-09-19T07:01:24;6.65;;;6.05;;
6093;SDS011;19964;42.060;24.700;2023-09-19T07:03:51;10.15;;;6.10;;
6093;SDS011;19964;42.060;24.700;2023-09-19T07:06:18;8.30;;;5.95;;
6093;SDS011;19964;42.060;24.700;2023-09-19T07:08:45;6.90;;;6.25;;
6093;SDS011;19964;42.060;24.700;2023-09-19T07:11:13;6.43;;;5.85;;
6093;SDS011;19964;42.060;24.700;2023-09-19T07:13:40;7.65;;;6.47;;
6093;SDS011;19964;42.060;24.700;2023-09-19T07:16:08;10.48;;;6.60;;
6093;SDS011;19964;42.060;24.700;2023-09-19T07:18:44;8.13;;;6.13;;
6093;SDS011;19964;42.060;24.700;2023-09-19T07:21:11;7.28;;;6.57;;
6093;SDS011;19964;42.060;24.700;2023-09-19T07:23:40;8.10;;;6.40;;
6093;SDS011;19964;42.060;24.700;2023-09-19T07:26:07;12.70;;;6.68;;
6093;SDS011;19964;42.060;24.700;2023-09-19T07:28:35;14.10;;;6.78;;
6093;SDS011;19964;42.060;24.700;2023-09-19T07:31:02;7.60;;;7.00;;
6093;SDS011;19964;42.060;24.700;2023-09-19T07:33:30;9.68;;;6.63;;
6093;SDS011;19964;42.060;24.700;2023-09-19T07:35:57;10.07;;;6.22;;
6093;SDS011;19964;42.060;24.700;2023-09-19T07:38:24;9.00;;;6.53;;
6093;SDS011;19964;42.060;24.700;2023-09-19T07:40:52;8.90;;;6.20;;
6093;SDS011;19964;42.060;24.700;2023-09-19T07:43:20;8.90;;;6.50;;
6093;SDS011;19964;42.060;24.700;2023-09-19T07:45:48;7.80;;;6.22;;
6093;SDS011;19964;42.060;24.700;2023-09-19T07:48:15;7.10;;;6.22;;
6093;SDS011;19964;42.060;24.700;2023-09-19T07:50:42;8.73;;;6.50;;
6093;SDS011;19964;42.060;24.700;2023-09-19T07:53:09;9.70;;;5.95;;
6093;SDS011;19964;42.060;24.700;2023-09-19T07:55:38;9.63;;;5.93;;
6093;SDS011;19964;42.060;24.700;2023-09-19T07:58:06;8.02;;;6.32;;
6093;SDS011;19964;42.060;24.700;2023-09-19T08:00:33;9.90;;;6.30;;
6093;SDS011;19964;42.060;24.700;2023-09-19T08:03:01;7.25;;;6.65;;
6093;SDS011;19964;42.060;24.700;2023-09-19T08:05:29;10.50;;;5.90;;
6093;SDS011;19964;42.060;24.700;2023-09-19T08:07:56;7.38;;;6.28;;
6093;SDS011;19964;42.060;24.700;2023-09-19T08:10:24;16.52;;;6.15;;
6093;SDS011;19964;42.060;24.700;2023-09-19T08:12:52;6.75;;;6.20;;
6093;SDS011;19964;42.060;24.700;2023-09-19T08:15:23;6.63;;;6.05;;
6093;SDS011;19964;42.060;24.700;2023-09-19T08:17:50;6.53;;;5.63;;
6093;SDS011;19964;42.060;24.700;2023-09-19T08:20:18;9.88;;;6.20;;
6093;SDS011;19964;42.060;24.700;2023-09-19T08:22:46;8.32;;;5.85;;
6093;SDS011;19964;42.060;24.700;2023-09-19T08:25:14;10.50;;;6.03;;
6093;SDS011;19964;42.060;24.700;2023-09-19T08:27:43;9.77;;;6.10;;
6093;SDS011;19964;42.060;24.700;2023-09-19T08:30:13;8.20;;;6.00;;
6093;SDS011;19964;42.060;24.700;2023-09-19T08:32:40;8.05;;;5.70;;
6093;SDS011;19964;42.060;24.700;2023-09-19T08:35:08;6.57;;;5.97;;
6093;SDS011;19964;42.060;24.700;2023-09-19T08:37:36;6.38;;;5.88;;
6093;SDS011;19964;42.060;24.700;2023-09-19T08:40:04;7.57;;;5.70;;
6093;SDS011;19964;42.060;24.700;2023-09-19T08:42:46;7.28;;;5.80;;
6093;SDS011;19964;42.060;24.700;2023-09-19T08:45:15;9.95;;;6.03;;
6093;SDS011;19964;42.060;24.700;2023-09-19T08:47:45;7.38;;;5.93;;
6093;SDS011;19964;42.060;24.700;2023-09-19T08:50:18;7.30;;;5.90;;
6093;SDS011;19964;42.060;24.700;2023-09-19T08:52:49;5.82;;;5.28;;
6093;SDS011;19964;42.060;24.700;2023-09-19T08:55:20;7.75;;;5.80;;
6093;SDS011;19964;42.060;24.700;2023-09-19T08:57:52;6.28;;;5.68;;
6093;SDS011;19964;42.060;24.700;2023-09-19T09:00:27;7.13;;;5.80;;
6093;SDS011;19964;42.060;24.700;2023-09-19T09:02:55;9.07;;;5.72;;
6093;SDS011;19964;42.060;24.700;2023-09-19T09:05:24;6.50;;;5.78;;
6093;SDS011;19964;42.060;24.700;2023-09-19T09:07:53;8.73;;;6.20;;
6093;SDS011;19964;42.060;24.700;2023-09-19T09:10:21;6.82;;;6.07;;
6093;SDS011;19964;42.060;24.700;2023-09-19T09:12:48;10.00;;;6.22;;
6093;SDS011;19964;42.060;24.700;2023-09-19T09:15:18;8.68;;;6.20;;
6093;SDS011;19964;42.060;24.700;2023-09-19T09:17:46;8.20;;;6.07;;
6093;SDS011;19964;42.060;24.700;2023-09-19T09:20:15;7.25;;;5.55;;
6093;SDS011;19964;42.060;24.700;2023-09-19T09:22:50;6.72;;;5.95;;
6093;SDS011;19964;42.060;24.700;2023-09-19T09:25:19;6.55;;;5.90;;
6093;SDS011;19964;42.060;24.700;2023-09-19T09:27:48;8.55;;;6.00;;
6093;SDS011;19964;42.060;24.700;2023-09-19T09:30:32;8.07;;;6.15;;
6093;SDS011;19964;42.060;24.700;2023-09-19T09:33:10;6.43;;;5.72;;
6093;SDS011;19964;42.060;24.700;2023-09-19T09:35:46;7.57;;;6.40;;
6093;SDS011;19964;42.060;24.700;2023-09-19T09:38:17;6.25;;;5.72;;
6093;SDS011;19964;42.060;24.700;2023-09-19T09:40:49;7.72;;;6.43;;
6093;SDS011;19964;42.060;24.700;2023-09-19T09:43:33;7.20;;;6.50;;
6093;SDS011;19964;42.060;24.700;2023-09-19T09:46:12;6.82;;;6.22;;
6093;SDS011;19964;42.060;24.700;2023-09-19T09:48:57;6.90;;;6.35;;
6093;SDS011;19964;42.060;24.700;2023-09-19T09:51:38;7.05;;;6.15;;
6093;SDS011;19964;42.060;24.700;2023-09-19T09:54:11;6.80;;;6.22;;
6093;SDS011;19964;42.060;24.700;2023-09-19T09:56:53;9.02;;;5.90;;
6093;SDS011;19964;42.060;24.700;2023-09-19T09:59:39;10.48;;;6.88;;
6093;SDS011;19964;42.060;24.700;2023-09-19T10:02:15;7.03;;;5.95;;
6093;SDS011;19964;42.060;24.700;2023-09-19T10:04:48;10.10;;;6.55;;
6093;SDS011;19964;42.060;24.700;2023-09-19T10:07:28;8.48;;;5.80;;
6093;SDS011;19964;42.060;24.700;2023-09-19T10:10:01;9.52;;;6.28;;
6093;SDS011;19964;42.060;24.700;2023-09-19T10:12:44;8.93;;;6.30;;
6093;SDS011;19964;42.060;24.700;2023-09-19T10:15:13;9.00;;;6.80;;
6093;SDS011;19964;42.060;24.700;2023-09-19T10:17:43;9.38;;;6.10;;
6093;SDS011;19964;42.060;24.700;2023-09-19T10:20:12;6.55;;;5.95;;
6093;SDS011;19964;42.060;24.700;2023-09-19T10:22:52;11.68;;;6.65;;
6093;SDS011;19964;42.060;24.700;2023-09-19T10:25:26;9.05;;;6.90;;
6093;SDS011;19964;42.060;24.700;2023-09-19T10:27:59;7.75;;;6.25;;
6093;SDS011;19964;42.060;24.700;2023-09-19T10:30:29;9.10;;;6.15;;
6093;SDS011;19964;42.060;24.700;2023-09-19T10:32:58;9.75;;;6.60;;
6093;SDS011;19964;42.060;24.700;2023-09-19T10:35:27;8.73;;;6.85;;
6093;SDS011;19964;42.060;24.700;2023-09-19T10:37:54;8.88;;;6.00;;
6093;SDS011;19964;42.060;24.700;2023-09-19T10:40:26;10.70;;;6.13;;
6093;SDS011;19964;42.060;24.700;2023-09-19T10:43:02;8.43;;;6.60;;
6093;SDS011;19964;42.060;24.700;2023-09-19T10:45:30;8.63;;;6.32;;
6093;SDS011;19964;42.060;24.700;2023-09-19T10:47:59;11.73;;;6.90;;
6093;SDS011;19964;42.060;24.700;2023-09-19T10:50:28;18.40;;;8.13;;
6093;SDS011;19964;42.060;24.700;2023-09-19T10:52:59;13.70;;;6.95;;
6093;SDS011;19964;42.060;24.700;2023-09-19T10:55:30;10.57;;;6.60;;
6093;SDS011;19964;42.060;24.700;2023-09-19T10:58:03;7.70;;;6.30;;
6093;SDS011;19964;42.060;24.700;2023-09-19T11:03:30;9.27;;;6.18;;
6093;SDS011;19964;42.060;24.700;2023-09-19T11:06:09;14.10;;;6.55;;
6093;SDS011;19964;42.060;24.700;2023-09-19T11:09:00;9.00;;;6.15;;
6093;SDS011;19964;42.060;24.700;2023-09-19T11:11:48;8.93;;;6.65;;
6093;SDS011;19964;42.060;24.700;2023-09-19T11:14:32;10.48;;;6.82;;
6093;SDS011;19964;42.060;24.700;2023-09-19T11:20:22;6.88;;;5.93;;
6093;SDS011;19964;42.060;24.700;2023-09-19T11:23:17;7.13;;;6.43;;
6093;SDS011;19964;42.060;24.700;2023-09-19T11:25:43;10.65;;;6.78;;
6093;SDS011;19964;42.060;24.700;2023-09-19T11:28:27;13.20;;;6.22;;
6093;SDS011;19964;42.060;24.700;2023-09-19T11:30:57;12.82;;;6.97;;
6093;SDS011;19964;42.060;24.700;2023-09-19T11:33:25;7.90;;;6.50;;
6093;SDS011;19964;42.060;24.700;2023-09-19T11:36:00;14.60;;;7.00;;
6093;SDS011;19964;42.060;24.700;2023-09-19T11:41:39;8.63;;;6.68;;
6093;SDS011;19964;42.060;24.700;2023-09-19T11:47:01;9.10;;;6.38;;
6093;SDS011;19964;42.060;24.700;2023-09-19T11:49:29;16.80;;;6.65;;
6093;SDS011;19964;42.060;24.700;2023-09-19T11:51:58;6.72;;;6.13;;
6093;SDS011;19964;42.060;24.700;2023-09-19T11:54:29;8.32;;;6.30;;
6093;SDS011;19964;42.060;24.700;2023-09-19T11:56:57;10.50;;;6.45;;
6093;SDS011;19964;42.060;24.700;2023-09-19T11:59:26;7.30;;;6.15;;
6093;SDS011;19964;42.060;24.700;2023-09-19T12:01:55;10.98;;;6.18;;
6093;SDS011;19964;42.060;24.700;2023-09-19T12:04:37;7.47;;;6.65;;
6093;SDS011;19964;42.060;24.700;2023-09-19T12:07:06;8.48;;;6.63;;
6093;SDS011;19964;42.060;24.700;2023-09-19T12:09:37;11.27;;;5.85;;
6093;SDS011;19964;42.060;24.700;2023-09-19T12:12:10;7.65;;;6.25;;
6093;SDS011;19964;42.060;24.700;2023-09-19T12:14:43;11.18;;;6.47;;
6093;SDS011;19964;42.060;24.700;2023-09-19T12:17:14;11.82;;;6.93;;
6093;SDS011;19964;42.060;24.700;2023-09-19T12:19:50;9.18;;;6.10;;
6093;SDS011;19964;42.060;24.700;2023-09-19T12:22:17;10.13;;;6.20;;
6093;SDS011;19964;42.060;24.700;2023-09-19T12:24:45;11.05;;;6.22;;
6093;SDS011;19964;42.060;24.700;2023-09-19T12:27:13;12.60;;;6.60;;
6093;SDS011;19964;42.060;24.700;2023-09-19T12:29:43;7.25;;;6.07;;
6093;SDS011;19964;42.060;24.700;2023-09-19T12:32:11;7.43;;;5.90;;
6093;SDS011;19964;42.060;24.700;2023-09-19T12:34:42;7.00;;;5.75;;
6093;SDS011;19964;42.060;24.700;2023-09-19T12:37:19;8.32;;;5.85;;
6093;SDS011;19964;42.060;24.700;2023-09-19T12:39:48;8.60;;;5.72;;
6093;SDS011;19964;42.060;24.700;2023-09-19T12:42:17;8.15;;;6.20;;
6093;SDS011;19964;42.060;24.700;2023-09-19T12:44:45;6.47;;;5.88;;
6093;SDS011;19964;42.060;24.700;2023-09-19T12:47:14;16.85;;;6.32;;
6093;SDS011;19964;42.060;24.700;2023-09-19T12:52:46;7.32;;;5.80;;
6093;SDS011;19964;42.060;24.700;2023-09-19T12:55:21;6.50;;;5.90;;
6093;SDS011;19964;42.060;24.700;2023-09-19T12:57:56;7.72;;;6.28;;
6093;SDS011;19964;42.060;24.700;2023-09-19T13:00:31;11.77;;;6.30;;
6093;SDS011;19964;42.060;24.700;2023-09-19T13:03:14;10.23;;;5.82;;
6093;SDS011;19964;42.060;24.700;2023-09-19T13:05:47;14.02;;;6.85;;
6093;SDS011;19964;42.060;24.700;2023-09-19T13:08:20;11.57;;;6.50;;
6093;SDS011;19964;42.060;24.700;2023-09-19T13:11:01;8.20;;;6.35;;
6093;SDS011;19964;42.060;24.700;2023-09-19T13:13:31;7.75;;;6.30;;
6093;SDS011;19964;42.060;24.700;2023-09-19T13:16:00;8.25;;;5.70;;
6093;SDS011;19964;42.060;24.700;2023-09-19T13:18:30;9.27;;;6.10;;
6093;SDS011;19964;42.060;24.700;2023-09-19T13:21:07;8.73;;;6.18;;
6093;SDS011;19964;42.060;24.700;2023-09-19T13:23:39;8.73;;;6.30;;
6093;SDS011;19964;42.060;24.700;2023-09-19T13:26:07;7.88;;;6.30;;
6093;SDS011;19964;42.060;24.700;2023-09-19T13:28:34;7.35;;;6.55;;
6093;SDS011;19964;42.060;24.700;2023-09-19T13:31:01;6.68;;;6.05;;
6093;SDS011;19964;42.060;24.700;2023-09-19T13:33:28;9.10;;;6.80;;
6093;SDS011;19964;42.060;24.700;2023-09-19T13:35:55;10.65;;;6.07;;
6093;SDS011;19964;42.060;24.700;2023-09-19T13:38:23;8.02;;;6.30;;
6093;SDS011;19964;42.060;24.700;2023-09-19T13:40:51;9.52;;;6.13;;
6093;SDS011;19964;42.060;24.700;2023-09-19T13:43:18;7.07;;;6.30;;
6093;SDS011;19964;42.060;24.700;2023-09-19T13:45:47;8.50;;;6.38;;
6093;SDS011;19964;42.060;24.700;2023-09-19T13:48:15;7.70;;;6.15;;
6093;SDS011;19964;42.060;24.700;2023-09-19T13:50:44;7.43;;;6.10;;
6093;SDS011;19964;42.060;24.700;2023-09-19T13:53:11;7.07;;;6.35;;
6093;SDS011;19964;42.060;24.700;2023-09-19T13:55:38;8.48;;;6.70;;
6093;SDS011;19964;42.060;24.700;2023-09-19T13:58:06;7.90;;;6.28;;
6093;SDS011;19964;42.060;24.700;2023-09-19T14:00:36;10.55;;;6.10;;
6093;SDS011;19964;42.060;24.700;2023-09-19T14:03:04;8.07;;;6.63;;
6093;SDS011;19964;42.060;24.700;2023-09-19T14:05:31;6.68;;;6.00;;
6093;SDS011;19964;42.060;24.700;2023-09-19T14:07:58;9.00;;;6.45;;
6093;SDS011;19964;42.060;24.700;2023-09-19T14:10:26;8.57;;;6.43;;
6093;SDS011;19964;42.060;24.700;2023-09-19T14:12:55;12.32;;;6.30;;
6093;SDS011;19964;42.060;24.700;2023-09-19T14:15:24;10.05;;;6.88;;
6093;SDS011;19964;42.060;24.700;2023-09-19T14:17:54;7.55;;;6.85;;
6093;SDS011;19964;42.060;24.700;2023-09-19T14:20:22;7.57;;;6.40;;
6093;SDS011;19964;42.060;24.700;2023-09-19T14:22:49;7.50;;;6.63;;
6093;SDS011;19964;42.060;24.700;2023-09-19T14:25:15;7.93;;;6.30;;
6093;SDS011;19964;42.060;24.700;2023-09-19T14:27:42;7.50;;;6.63;;
6093;SDS011;19964;42.060;24.700;2023-09-19T14:30:09;6.60;;;6.10;;
6093;SDS011;19964;42.060;24.700;2023-09-19T14:32:38;11.20;;;6.68;;
6093;SDS011;19964;42.060;24.700;2023-09-19T14:35:06;8.00;;;6.57;;
6093;SDS011;19964;42.060;24.700;2023-09-19T14:37:34;7.55;;;6.68;;
6093;SDS011;19964;42.060;24.700;2023-09-19T14:40:04;10.73;;;6.25;;
6093;SDS011;19964;42.060;24.700;2023-09-19T14:42:34;6.65;;;6.07;;
6093;SDS011;19964;42.060;24.700;2023-09-19T14:45:04;11.73;;;6.50;;
6093;SDS011;19964;42.060;24.700;2023-09-19T14:47:32;10.40;;;6.85;;
6093;SDS011;19964;42.060;24.700;2023-09-19T14:50:01;8.38;;;6.35;;
6093;SDS011;19964;42.060;24.700;2023-09-19T14:52:31;8.95;;;6.03;;
6093;SDS011;19964;42.060;24.700;2023-09-19T14:54:58;7.13;;;6.38;;
6093;SDS011;19964;42.060;24.700;2023-09-19T14:57:25;8.57;;;6.22;;
6093;SDS011;19964;42.060;24.700;2023-09-19T14:59:52;13.48;;;6.70;;
6093;SDS011;19964;42.060;24.700;2023-09-19T15:02:19;7.18;;;6.35;;
6093;SDS011;19964;42.060;24.700;2023-09-19T15:04:46;8.57;;;6.13;;
6093;SDS011;19964;42.060;24.700;2023-09-19T15:07:14;8.13;;;6.18;;
6093;SDS011;19964;42.060;24.700;2023-09-19T15:09:42;9.77;;;5.93;;
6093;SDS011;19964;42.060;24.700;2023-09-19T15:12:10;8.85;;;5.93;;
6093;SDS011;19964;42.060;24.700;2023-09-19T15:14:39;9.43;;;6.20;;
6093;SDS011;19964;42.060;24.700;2023-09-19T15:17:06;9.27;;;6.15;;